Time;durP1;ratioP1;P1;durP2;ratioP2;P2;SDS_P1;SDS_P2;PMS_P1;PMS_P2;Temp;Humidity;BMP_temperature;BMP_pressure;BME280_temperature;BME280_humidity;BME280_pressure;Samples;Min_cycle;Max_cycle;Signal;HPM_P1;HPM_P2
2022/09/26 00:00:54;;;;;;;12.23;11.23;;;10.00;99.90;;;;;;5097446;28;20469;-71
2022/09/26 00:03:21;;;;;;;12.50;11.50;;;10.10;99.90;;;;;;5092941;28;20466;-68
2022/09/26 00:05:47;;;;;;;20.37;11.43;;;10.20;99.90;;;;;;5092440;28;20466;-70
2022/09/26 00:08:14;;;;;;;15.10;11.00;;;10.20;99.90;;;;;;5090680;28;20493;-68
2022/09/26 00:10:43;;;;;;;12.17;11.17;;;10.30;99.90;;;;;;5093739;28;20825;-68
2022/09/26 00:13:10;;;;;;;12.50;11.20;;;10.40;99.90;;;;;;5098734;28;20561;-70
2022/09/26 00:15:36;;;;;;;13.63;10.30;;;10.50;99.90;;;;;;5090532;28;20472;-68
2022/09/26 00:18:04;;;;;;;11.10;10.00;;;10.60;99.90;;;;;;5090933;28;20851;-68
2022/09/26 00:20:31;;;;;;;12.77;11.07;;;10.60;99.90;;;;;;5090787;28;20884;-70
2022/09/26 00:22:58;;;;;;;11.93;9.90;;;10.60;99.90;;;;;;5093399;28;20472;-68
2022/09/26 00:25:25;;;;;;;11.03;10.10;;;10.70;99.90;;;;;;5094388;28;20846;-70
2022/09/26 00:27:54;;;;;;;12.43;10.40;;;10.60;99.90;;;;;;5096317;28;21029;-69
2022/09/26 00:30:21;;;;;;;16.93;10.27;;;10.60;99.90;;;;;;5096401;28;20476;-68
2022/09/26 00:32:47;;;;;;;11.87;10.87;;;10.60;99.90;;;;;;5092917;28;20472;-70
2022/09/26 00:35:14;;;;;;;14.07;11.13;;;10.60;99.90;;;;;;5096084;28;20464;-68
2022/09/26 00:37:56;;;;;;;12.37;10.13;;;10.70;99.90;;;;;;5097613;28;20462;-68
2022/09/26 00:40:25;;;;;;;15.47;10.07;;;10.70;99.90;;;;;;5094296;28;20519;-68
2022/09/26 00:42:54;;;;;;;11.73;10.17;;;10.70;99.90;;;;;;5095988;28;20460;-68
2022/09/26 00:45:22;;;;;;;11.20;9.60;;;10.70;99.90;;;;;;5097987;28;20466;-68
2022/09/26 00:47:56;;;;;;;12.07;10.97;;;10.70;99.90;;;;;;5097457;28;20493;-68
2022/09/26 00:50:26;;;;;;;11.47;10.20;;;10.70;99.90;;;;;;5095241;28;20467;-70
2022/09/26 00:52:57;;;;;;;11.80;10.63;;;10.70;99.90;;;;;;5094671;28;20462;-70
2022/09/26 00:55:29;;;;;;;11.20;10.10;;;10.80;99.90;;;;;;5098707;28;20458;-70
2022/09/26 00:58:04;;;;;;;15.60;11.77;;;10.80;99.90;;;;;;5093856;28;20460;-68
2022/09/26 01:00:30;;;;;;;11.50;10.33;;;10.80;99.90;;;;;;5093161;28;20493;-68
2022/09/26 01:02:58;;;;;;;13.40;12.00;;;10.90;99.90;;;;;;5092845;28;20527;-68
2022/09/26 01:05:25;;;;;;;16.27;12.23;;;10.90;99.90;;;;;;5093216;28;20450;-68
2022/09/26 01:07:54;;;;;;;12.70;11.50;;;10.90;99.90;;;;;;5090992;28;20474;-70
2022/09/26 01:10:21;;;;;;;14.30;11.80;;;10.90;99.90;;;;;;5097086;28;20457;-68
2022/09/26 01:12:49;;;;;;;13.13;11.40;;;10.90;99.90;;;;;;5094839;28;20491;-68
2022/09/26 01:15:18;;;;;;;17.50;11.93;;;10.90;99.90;;;;;;5097987;28;20513;-68
2022/09/26 01:17:45;;;;;;;12.70;11.50;;;11.00;99.90;;;;;;5099793;28;20464;-67
2022/09/26 01:20:25;;;;;;;13.30;12.10;;;11.00;99.90;;;;;;5096012;28;20461;-68
2022/09/26 01:23:24;;;;;;;13.00;11.80;;;11.00;99.90;;;;;;5099324;28;20456;-67
2022/09/26 01:26:29;;;;;;;19.10;12.33;;;11.00;99.90;;;;;;5090692;28;21014;-68
2022/09/26 01:29:16;;;;;;;13.90;11.37;;;11.00;99.90;;;;;;5050456;28;1286509;-67
2022/09/26 01:32:47;;;;;;;13.57;12.13;;;11.00;99.90;;;;;;5092068;28;20461;-69
2022/09/26 01:34:43;;;;;;;14.77;12.90;;;11.10;99.90;;;;;;5099557;28;20453;-67
2022/09/26 01:37:18;;;;;;;13.57;12.03;;;11.00;99.90;;;;;;5103525;28;20867;-68
2022/09/26 01:39:54;;;;;;;13.50;12.20;;;11.00;99.90;;;;;;5094869;28;20457;-68
2022/09/26 01:42:32;;;;;;;13.77;12.33;;;11.10;99.90;;;;;;5094095;28;20458;-68
2022/09/26 01:45:04;;;;;;;18.77;12.70;;;11.20;99.90;;;;;;5096325;28;20953;-68
2022/09/26 01:47:41;;;;;;;22.27;12.10;;;11.20;99.90;;;;;;5094222;28;20478;-70
2022/09/26 01:50:15;;;;;;;13.17;11.93;;;11.30;99.90;;;;;;5093962;28;20464;-68
2022/09/26 01:52:48;;;;;;;15.70;12.03;;;11.30;99.90;;;;;;5095651;28;20458;-69
2022/09/26 01:55:21;;;;;;;13.40;12.10;;;11.30;99.90;;;;;;5096493;28;20458;-68
2022/09/26 01:57:52;;;;;;;18.27;13.23;;;11.20;99.90;;;;;;5093475;28;20835;-68
2022/09/26 02:00:19;;;;;;;13.50;11.97;;;11.30;99.90;;;;;;5095305;28;20589;-71
2022/09/26 02:02:51;;;;;;;14.70;13.20;;;11.30;99.90;;;;;;5096605;28;20469;-68
2022/09/26 02:05:25;;;;;;;15.93;11.50;;;11.30;99.90;;;;;;5096569;28;20453;-69
2022/09/26 02:07:56;;;;;;;19.37;12.60;;;11.30;99.90;;;;;;5093891;28;20486;-69
2022/09/26 02:10:27;;;;;;;13.73;12.47;;;11.30;99.90;;;;;;5095447;28;20465;-68
2022/09/26 02:13:01;;;;;;;13.23;11.63;;;11.40;99.90;;;;;;5091070;28;20504;-68
2022/09/26 02:15:31;;;;;;;14.07;12.50;;;11.40;99.90;;;;;;5093613;28;20496;-68
2022/09/26 02:18:08;;;;;;;14.37;12.97;;;11.40;99.90;;;;;;5102673;28;20458;-68
2022/09/26 02:20:37;;;;;;;14.30;12.83;;;11.40;99.90;;;;;;5098043;28;20880;-70
2022/09/26 02:23:07;;;;;;;14.90;12.63;;;11.30;99.90;;;;;;5093325;28;20485;-68
2022/09/26 02:25:36;;;;;;;13.27;11.97;;;11.30;99.90;;;;;;5093996;28;20497;-71
2022/09/26 02:28:03;;;;;;;14.40;12.90;;;11.40;99.90;;;;;;5101108;28;20490;-69
2022/09/26 02:30:31;;;;;;;13.90;12.60;;;11.40;99.90;;;;;;5090572;28;21770;-71
2022/09/26 02:33:00;;;;;;;12.90;11.60;;;11.40;99.90;;;;;;5102094;28;21019;-68
2022/09/26 02:38:12;;;;;;;19.60;12.33;;;11.50;99.90;;;;;;5093596;28;20535;-67
2022/09/26 02:40:45;;;;;;;15.63;13.00;;;11.50;99.90;;;;;;5091623;28;20461;-67
2022/09/26 02:43:27;;;;;;;17.07;12.03;;;11.50;99.90;;;;;;5093663;28;20447;-68
2022/09/26 02:46:06;;;;;;;15.43;12.03;;;11.50;99.90;;;;;;5090793;28;20830;-70
2022/09/26 02:48:57;;;;;;;15.67;12.77;;;11.40;99.90;;;;;;5096204;28;20495;-69
2022/09/26 02:51:46;;;;;;;15.53;13.13;;;11.50;99.90;;;;;;5090482;28;20453;-68
2022/09/26 02:54:22;;;;;;;17.50;12.70;;;11.40;99.90;;;;;;5099300;28;20576;-70
2022/09/26 02:57:10;;;;;;;20.03;12.37;;;11.50;99.90;;;;;;5098516;28;20452;-68
2022/09/26 02:59:48;;;;;;;15.73;12.30;;;11.40;99.90;;;;;;5093587;28;20469;-69
2022/09/26 03:02:17;;;;;;;21.70;12.67;;;11.40;99.90;;;;;;5093760;28;20446;-72
2022/09/26 03:04:50;;;;;;;14.03;11.87;;;11.50;99.90;;;;;;5098006;28;20497;-71
2022/09/26 03:07:24;;;;;;;14.77;11.30;;;11.50;99.90;;;;;;5093387;28;20496;-70
2022/09/26 03:09:53;;;;;;;14.13;12.10;;;11.50;99.90;;;;;;5093032;28;20479;-68
2022/09/26 03:12:20;;;;;;;15.27;12.50;;;11.50;99.90;;;;;;5092657;28;20480;-69
2022/09/26 03:14:50;;;;;;;14.70;11.50;;;11.50;99.90;;;;;;5095021;28;20488;-68
2022/09/26 03:17:18;;;;;;;13.20;11.20;;;11.50;99.90;;;;;;5093830;28;20573;-68
2022/09/26 03:19:50;;;;;;;15.77;11.70;;;11.50;99.90;;;;;;5092282;28;20466;-66
2022/09/26 03:22:17;;;;;;;14.50;11.43;;;11.60;99.90;;;;;;5091988;28;20477;-67
2022/09/26 03:24:45;;;;;;;14.70;13.27;;;11.60;99.90;;;;;;5093965;28;20450;-69
2022/09/26 03:27:13;;;;;;;13.03;11.93;;;11.60;99.90;;;;;;5089837;28;20794;-67
2022/09/26 03:29:40;;;;;;;15.20;12.20;;;11.60;99.90;;;;;;5089715;28;20454;-70
2022/09/26 03:32:08;;;;;;;12.20;11.00;;;11.50;99.90;;;;;;5090348;28;20473;-68
2022/09/26 03:34:38;;;;;;;12.33;11.10;;;11.50;99.90;;;;;;5092413;28;20533;-67
2022/09/26 03:37:08;;;;;;;16.90;11.37;;;11.60;99.90;;;;;;5096662;28;20556;-68
2022/09/26 03:39:35;;;;;;;13.60;11.70;;;11.50;99.90;;;;;;5095990;28;20460;-71
2022/09/26 03:42:02;;;;;;;12.73;11.40;;;11.60;99.90;;;;;;5092518;28;20457;-70
2022/09/26 03:44:29;;;;;;;13.70;11.40;;;11.50;99.90;;;;;;5095772;28;20470;-69
2022/09/26 03:46:56;;;;;;;11.53;10.33;;;11.50;99.90;;;;;;5094717;28;20464;-69
2022/09/26 03:49:22;;;;;;;14.63;11.37;;;11.50;99.90;;;;;;5095950;28;20489;-70
2022/09/26 03:51:50;;;;;;;18.40;12.70;;;11.40;99.90;;;;;;5092589;28;20470;-67
2022/09/26 03:54:19;;;;;;;12.67;11.33;;;11.30;99.90;;;;;;5090824;28;20540;-68
2022/09/26 03:56:46;;;;;;;16.03;11.80;;;11.30;99.90;;;;;;5095201;28;20498;-68
2022/09/26 03:59:14;;;;;;;14.10;12.60;;;11.30;99.90;;;;;;5089686;28;20466;-68
2022/09/26 04:01:42;;;;;;;13.40;12.00;;;11.20;99.90;;;;;;5088335;28;20461;-69
2022/09/26 04:04:08;;;;;;;13.17;11.67;;;11.20;99.90;;;;;;5092219;28;20458;-67
2022/09/26 04:06:36;;;;;;;18.63;12.90;;;11.20;99.90;;;;;;5090991;28;20481;-67
2022/09/26 04:09:04;;;;;;;13.97;12.70;;;11.20;99.90;;;;;;5088055;28;20514;-69
2022/09/26 04:11:32;;;;;;;15.53;13.97;;;11.10;99.90;;;;;;5097521;28;20525;-69
2022/09/26 04:13:59;;;;;;;15.17;13.17;;;11.10;99.90;;;;;;5090384;28;20461;-68
2022/09/26 04:16:25;;;;;;;12.30;11.10;;;11.10;99.90;;;;;;5095612;28;20475;-70
2022/09/26 04:18:56;;;;;;;13.00;11.80;;;11.10;99.90;;;;;;5087472;28;20549;-71
2022/09/26 04:21:23;;;;;;;13.27;10.90;;;11.10;99.90;;;;;;5088018;28;20462;-68
2022/09/26 04:23:52;;;;;;;12.50;11.20;;;11.10;99.90;;;;;;5094497;28;20468;-67
2022/09/26 04:26:20;;;;;;;15.43;11.50;;;11.10;99.90;;;;;;5094350;28;20463;-70
2022/09/26 04:28:49;;;;;;;13.80;11.07;;;11.10;99.90;;;;;;5093215;28;20504;-68
2022/09/26 04:31:17;;;;;;;13.00;11.20;;;11.10;99.90;;;;;;5094266;28;20462;-68
2022/09/26 04:33:44;;;;;;;12.03;10.00;;;11.10;99.90;;;;;;5092271;28;20469;-68
2022/09/26 04:36:13;;;;;;;12.80;11.60;;;11.10;99.90;;;;;;5090815;28;20636;-68
2022/09/26 04:38:40;;;;;;;12.70;10.97;;;11.00;99.90;;;;;;5087142;28;20798;-68
2022/09/26 04:41:09;;;;;;;15.00;11.80;;;11.00;99.90;;;;;;5095537;28;20458;-68
2022/09/26 04:43:36;;;;;;;12.07;11.10;;;11.00;99.90;;;;;;5095719;28;20461;-68
2022/09/26 04:46:07;;;;;;;15.00;12.50;;;11.00;99.90;;;;;;5095323;28;20482;-70
2022/09/26 04:48:34;;;;;;;13.60;11.03;;;10.90;99.90;;;;;;5093957;28;20488;-73
2022/09/26 04:51:06;;;;;;;13.17;11.97;;;10.90;99.90;;;;;;5092421;28;20991;-72
2022/09/26 04:53:32;;;;;;;12.40;11.20;;;10.90;99.90;;;;;;5089996;28;20542;-70
2022/09/26 04:56:00;;;;;;;13.90;12.50;;;10.80;99.90;;;;;;5090585;28;20503;-71
2022/09/26 04:58:27;;;;;;;12.07;11.10;;;10.80;99.90;;;;;;5091627;28;20461;-70
2022/09/26 05:00:54;;;;;;;13.77;12.43;;;10.80;99.90;;;;;;5091716;28;20472;-68
2022/09/26 05:03:22;;;;;;;12.13;10.90;;;10.80;99.90;;;;;;5089798;28;20462;-70
2022/09/26 05:05:50;;;;;;;12.50;11.37;;;10.80;99.90;;;;;;5092431;28;20462;-67
2022/09/26 05:08:17;;;;;;;11.90;10.90;;;10.90;99.90;;;;;;5095274;28;20492;-68
2022/09/26 05:10:51;;;;;;;12.87;11.73;;;10.90;99.90;;;;;;5091060;28;20476;-68
2022/09/26 05:13:18;;;;;;;12.77;11.67;;;10.90;99.90;;;;;;5092474;28;20488;-71
2022/09/26 05:15:46;;;;;;;13.00;11.70;;;10.90;99.90;;;;;;5088850;28;20846;-68
2022/09/26 05:18:14;;;;;;;13.63;12.43;;;10.90;99.90;;;;;;5090785;28;20468;-68
2022/09/26 05:20:47;;;;;;;13.60;12.50;;;10.90;99.90;;;;;;5088776;28;21038;-68
2022/09/26 05:26:18;;;;;;;13.40;11.70;;;10.90;99.90;;;;;;5096990;28;20801;-69
2022/09/26 05:26:19;;;;;;;12.43;11.53;;;10.90;99.90;;;;;;5091221;28;20908;-68
2022/09/26 05:28:48;;;;;;;12.77;11.90;;;10.90;99.90;;;;;;5092183;28;20888;-68
2022/09/26 05:31:15;;;;;;;13.83;12.30;;;10.90;99.90;;;;;;5093427;28;20464;-67
2022/09/26 05:33:43;;;;;;;12.37;11.23;;;10.90;99.90;;;;;;5092216;28;20457;-70
2022/09/26 05:36:13;;;;;;;18.00;11.70;;;11.00;99.90;;;;;;5099889;28;20486;-67
2022/09/26 05:38:40;;;;;;;13.40;12.30;;;11.00;99.90;;;;;;5096564;28;20872;-67
2022/09/26 05:41:06;;;;;;;12.33;11.33;;;11.00;99.90;;;;;;5091692;28;20481;-67
2022/09/26 05:43:34;;;;;;;12.40;11.20;;;11.10;99.90;;;;;;5098499;28;20490;-68
2022/09/26 05:46:04;;;;;;;13.80;12.47;;;11.10;99.90;;;;;;5094391;28;20905;-67
2022/09/26 05:48:32;;;;;;;13.37;12.27;;;11.10;99.90;;;;;;5092195;28;20476;-67
2022/09/26 05:51:03;;;;;;;13.53;12.47;;;11.10;99.90;;;;;;5091779;28;21037;-70
2022/09/26 05:53:32;;;;;;;12.70;12.00;;;11.10;99.90;;;;;;5094677;28;20549;-69
2022/09/26 05:56:00;;;;;;;13.60;12.40;;;11.20;99.90;;;;;;5092353;28;20509;-68
2022/09/26 05:58:31;;;;;;;19.03;12.30;;;11.20;99.90;;;;;;5093469;28;20449;-71
2022/09/26 06:01:03;;;;;;;12.30;11.50;;;11.20;99.90;;;;;;5092719;28;20474;-70
2022/09/26 06:03:33;;;;;;;14.40;12.50;;;11.20;99.90;;;;;;5096839;28;20462;-68
2022/09/26 06:06:02;;;;;;;13.50;12.33;;;11.30;99.90;;;;;;5093492;28;20512;-68
2022/09/26 06:08:31;;;;;;;13.70;12.60;;;11.40;99.90;;;;;;5095642;28;20521;-70
2022/09/26 06:11:02;;;;;;;17.93;13.70;;;11.50;99.90;;;;;;5089118;28;20940;-68
2022/09/26 06:13:30;;;;;;;14.00;12.93;;;11.60;99.90;;;;;;5088251;28;20462;-69
2022/09/26 06:16:00;;;;;;;15.17;13.60;;;11.60;99.90;;;;;;5091385;28;20989;-68
2022/09/26 06:18:26;;;;;;;14.83;13.63;;;11.70;99.90;;;;;;5092832;28;20453;-70
2022/09/26 06:20:53;;;;;;;13.33;12.33;;;11.70;99.90;;;;;;5093994;28;20453;-67
2022/09/26 06:23:20;;;;;;;14.13;13.03;;;11.60;99.90;;;;;;5094081;28;20465;-68
2022/09/26 06:25:48;;;;;;;14.00;13.10;;;11.70;99.90;;;;;;5091940;28;20557;-68
2022/09/26 06:28:16;;;;;;;13.73;12.83;;;11.80;99.90;;;;;;5094447;28;20585;-69
2022/09/26 06:30:43;;;;;;;14.40;13.20;;;11.70;99.90;;;;;;5094706;28;20547;-69
2022/09/26 06:33:11;;;;;;;13.83;12.60;;;11.80;99.90;;;;;;5087976;28;21392;-68
2022/09/26 06:35:39;;;;;;;14.60;13.40;;;11.90;99.90;;;;;;5095655;28;20543;-67
2022/09/26 06:38:05;;;;;;;14.63;13.53;;;12.00;99.90;;;;;;5091647;28;20470;-68
2022/09/26 06:40:32;;;;;;;15.83;14.17;;;12.00;99.90;;;;;;5093056;28;20470;-68
2022/09/26 06:43:01;;;;;;;16.20;13.43;;;12.10;99.90;;;;;;5091898;28;20560;-68
2022/09/26 06:45:28;;;;;;;14.10;13.00;;;12.10;99.90;;;;;;5089930;28;21028;-69
2022/09/26 06:47:55;;;;;;;14.30;12.80;;;12.10;99.90;;;;;;5095555;28;20462;-69
2022/09/26 06:50:22;;;;;;;13.47;12.60;;;12.10;99.90;;;;;;5093877;28;20493;-69
2022/09/26 06:52:50;;;;;;;13.70;12.70;;;12.10;99.90;;;;;;5088148;28;20484;-69
2022/09/26 06:55:17;;;;;;;13.13;12.33;;;12.00;99.90;;;;;;5093479;28;20453;-69
2022/09/26 06:57:44;;;;;;;13.70;12.33;;;12.10;99.90;;;;;;5100278;28;20466;-68
2022/09/26 07:00:15;;;;;;;13.67;12.57;;;12.00;99.90;;;;;;5087692;28;20462;-68
2022/09/26 07:02:51;;;;;;;13.83;12.60;;;11.90;99.90;;;;;;5090369;28;20524;-68
2022/09/26 07:05:19;;;;;;;15.17;14.20;;;11.80;99.90;;;;;;5090333;28;20940;-68
2022/09/26 07:07:47;;;;;;;17.40;15.53;;;11.80;99.90;;;;;;5094389;28;20462;-68
2022/09/26 07:10:17;;;;;;;17.03;15.80;;;11.60;99.90;;;;;;5092514;28;20493;-68
2022/09/26 07:12:45;;;;;;;18.13;16.40;;;11.60;99.90;;;;;;5087718;28;20486;-67
2022/09/26 07:15:16;;;;;;;18.57;17.17;;;11.50;99.90;;;;;;5090795;28;20492;-68
2022/09/26 07:17:44;;;;;;;21.00;17.00;;;11.50;99.90;;;;;;5088010;28;21188;-68
2022/09/26 07:20:12;;;;;;;23.33;17.80;;;11.40;99.90;;;;;;5092590;28;20459;-68
2022/09/26 07:22:38;;;;;;;18.17;16.97;;;11.40;99.90;;;;;;5091746;28;20453;-68
2022/09/26 07:25:06;;;;;;;19.53;18.23;;;11.40;99.90;;;;;;5096769;28;20824;-67
2022/09/26 07:27:33;;;;;;;20.17;18.87;;;11.40;99.90;;;;;;5091994;28;20653;-68
2022/09/26 07:30:01;;;;;;;20.33;18.97;;;11.40;99.90;;;;;;5088944;28;20486;-69
2022/09/26 07:32:31;;;;;;;20.23;18.83;;;11.30;99.90;;;;;;5098221;28;20493;-67
2022/09/26 07:35:02;;;;;;;21.10;19.60;;;11.20;99.90;;;;;;5093294;28;20958;-69
2022/09/26 07:37:29;;;;;;;21.13;19.53;;;11.20;99.90;;;;;;5093733;28;20561;-66
2022/09/26 07:39:55;;;;;;;20.00;18.60;;;11.10;99.90;;;;;;5092405;28;20576;-69
2022/09/26 07:42:23;;;;;;;18.90;17.80;;;11.10;99.90;;;;;;5095081;28;20538;-67
2022/09/26 07:44:50;;;;;;;19.50;18.20;;;11.00;99.90;;;;;;5090860;28;20457;-67
2022/09/26 07:50:13;;;;;;;20.57;18.83;;;11.00;99.90;;;;;;5091345;28;20961;-67
2022/09/26 07:52:40;;;;;;;19.30;18.00;;;11.00;99.90;;;;;;5093376;28;20457;-68
2022/09/26 07:55:08;;;;;;;18.47;17.37;;;11.00;99.90;;;;;;5093455;28;20547;-69
2022/09/26 07:57:35;;;;;;;18.87;17.60;;;11.00;99.90;;;;;;5090020;28;20457;-68
2022/09/26 08:00:03;;;;;;;17.77;16.50;;;11.00;99.90;;;;;;5099247;28;20461;-67
2022/09/26 08:02:32;;;;;;;18.47;16.70;;;10.90;99.90;;;;;;5092676;28;20462;-68
2022/09/26 08:05:02;;;;;;;17.13;16.13;;;10.90;99.90;;;;;;5092316;28;20605;-67
2022/09/26 08:07:30;;;;;;;17.57;16.17;;;10.90;99.90;;;;;;5090623;28;20469;-67
2022/09/26 08:10:00;;;;;;;17.80;16.70;;;11.00;99.90;;;;;;5085888;28;21018;-67
2022/09/26 08:12:27;;;;;;;18.30;17.00;;;11.00;99.90;;;;;;5091603;28;20822;-68
2022/09/26 08:14:54;;;;;;;18.53;17.43;;;11.00;99.90;;;;;;5102341;28;20462;-67
2022/09/26 08:17:21;;;;;;;18.97;17.40;;;10.90;99.90;;;;;;5091075;28;20491;-67
2022/09/26 08:19:48;;;;;;;18.60;17.30;;;11.00;99.90;;;;;;5091559;28;20461;-67
2022/09/26 08:22:15;;;;;;;18.33;17.33;;;11.00;99.90;;;;;;5089040;28;20488;-67
2022/09/26 08:24:49;;;;;;;18.23;17.00;;;11.00;99.90;;;;;;5098338;28;20453;-68
2022/09/26 08:27:15;;;;;;;19.17;17.90;;;11.00;99.90;;;;;;5088628;28;20462;-67
2022/09/26 08:29:47;;;;;;;18.97;17.57;;;11.10;99.90;;;;;;5094290;28;20543;-69
2022/09/26 08:32:14;;;;;;;17.33;16.33;;;11.10;99.90;;;;;;5087997;28;20865;-68
2022/09/26 08:34:41;;;;;;;18.77;17.60;;;11.10;99.90;;;;;;5091755;28;20467;-69
2022/09/26 08:37:08;;;;;;;19.00;17.80;;;11.20;99.90;;;;;;5092270;28;20462;-67
2022/09/26 08:39:35;;;;;;;20.00;18.60;;;11.20;99.90;;;;;;5087362;28;20477;-67
2022/09/26 08:42:22;;;;;;;19.97;18.23;;;11.20;99.90;;;;;;5088414;28;20895;-67
2022/09/26 08:46:17;;;;;;;20.63;19.10;;;11.30;99.90;;;;;;5091018;28;20461;-69
2022/09/26 08:47:57;;;;;;;19.30;18.10;;;11.30;99.90;;;;;;5095520;28;20531;-67
2022/09/26 08:50:32;;;;;;;18.60;17.50;;;11.30;99.90;;;;;;5093526;28;20592;-67
2022/09/26 08:53:04;;;;;;;19.70;18.30;;;11.40;99.90;;;;;;5089643;28;20499;-66
2022/09/26 08:55:34;;;;;;;19.23;17.63;;;11.40;99.90;;;;;;5089898;28;20573;-68
2022/09/26 08:58:08;;;;;;;19.77;18.00;;;11.40;99.90;;;;;;5096619;28;20469;-67
2022/09/26 09:00:37;;;;;;;19.17;17.70;;;11.40;99.90;;;;;;5099784;28;20936;-68
2022/09/26 09:03:12;;;;;;;19.57;17.90;;;11.30;99.90;;;;;;5098243;28;20569;-68
2022/09/26 09:05:43;;;;;;;19.87;17.93;;;11.30;99.90;;;;;;5097682;28;20460;-68
2022/09/26 09:08:16;;;;;;;17.30;15.97;;;11.30;99.90;;;;;;5094981;28;20488;-70
2022/09/26 09:10:47;;;;;;;18.13;16.73;;;11.30;99.90;;;;;;5098847;28;20494;-68
2022/09/26 09:13:44;;;;;;;17.37;16.20;;;11.30;99.90;;;;;;5091566;28;20517;-70
2022/09/26 09:16:25;;;;;;;16.77;15.53;;;11.50;99.90;;;;;;5094118;28;20492;-69
2022/09/26 09:19:02;;;;;;;17.90;16.57;;;11.50;99.90;;;;;;5096500;28;20929;-68
2022/09/26 09:21:39;;;;;;;18.33;17.13;;;11.60;99.90;;;;;;5094337;28;20935;-68
2022/09/26 09:24:17;;;;;;;18.57;17.13;;;11.60;99.90;;;;;;5097556;28;20456;-69
2022/09/26 09:26:55;;;;;;;17.50;16.50;;;11.60;99.90;;;;;;5094109;28;20548;-68
2022/09/26 09:29:45;;;;;;;17.20;15.90;;;11.60;99.90;;;;;;5090256;28;20564;-69
2022/09/26 09:32:19;;;;;;;16.60;15.40;;;11.60;99.90;;;;;;5091881;28;20927;-68
2022/09/26 09:34:48;;;;;;;16.33;15.30;;;11.70;99.90;;;;;;5094127;28;20975;-70
2022/09/26 09:37:20;;;;;;;15.70;14.60;;;11.80;99.90;;;;;;5096724;28;20462;-68
2022/09/26 09:39:49;;;;;;;15.57;14.67;;;11.90;99.90;;;;;;5098215;28;20457;-68
2022/09/26 09:42:22;;;;;;;14.90;14.10;;;12.00;99.90;;;;;;5094213;28;20449;-69
2022/09/26 09:44:55;;;;;;;15.00;14.00;;;12.10;99.90;;;;;;5095120;28;20469;-68
2022/09/26 09:47:22;;;;;;;13.43;12.60;;;12.20;99.90;;;;;;5093909;28;20460;-69
2022/09/26 09:49:49;;;;;;;14.67;13.17;;;12.30;99.90;;;;;;5095570;28;20536;-68
2022/09/26 09:52:29;;;;;;;13.00;12.20;;;12.30;99.90;;;;;;5095777;28;20454;-70
2022/09/26 09:55:06;;;;;;;11.93;11.30;;;12.40;99.90;;;;;;5094083;28;20962;-70
2022/09/26 09:57:53;;;;;;;11.83;10.80;;;12.50;99.90;;;;;;5095659;28;20461;-68
2022/09/26 10:00:24;;;;;;;11.37;10.47;;;12.50;99.90;;;;;;5094448;28;20492;-70
2022/09/26 10:02:59;;;;;;;10.43;9.87;;;12.50;99.90;;;;;;5097351;28;20834;-69
2022/09/26 10:05:40;;;;;;;10.10;9.33;;;12.60;99.90;;;;;;5092226;28;20462;-67
2022/09/26 10:08:12;;;;;;;11.27;10.40;;;12.70;99.90;;;;;;5093420;28;20480;-70
2022/09/26 10:10:47;;;;;;;11.33;10.30;;;12.70;99.90;;;;;;5094827;28;20485;-68
2022/09/26 10:13:16;;;;;;;11.33;10.50;;;12.80;99.90;;;;;;5095064;28;20473;-69
2022/09/26 10:15:53;;;;;;;11.93;11.17;;;13.00;99.90;;;;;;5094704;28;20487;-67
2022/09/26 10:18:21;;;;;;;11.70;10.97;;;13.00;99.90;;;;;;5096218;28;20485;-68
2022/09/26 10:20:52;;;;;;;13.37;12.47;;;13.20;99.90;;;;;;5095037;28;20505;-69
2022/09/26 10:23:24;;;;;;;12.40;11.50;;;13.30;99.90;;;;;;5093703;28;20473;-68
2022/09/26 10:25:58;;;;;;;12.93;12.13;;;13.30;99.90;;;;;;5092604;28;20487;-68
2022/09/26 10:28:29;;;;;;;13.23;12.33;;;13.40;99.90;;;;;;5095072;28;20469;-69
2022/09/26 10:31:07;;;;;;;13.63;12.97;;;13.50;99.90;;;;;;5086618;28;20500;-68
2022/09/26 10:33:36;;;;;;;14.97;13.60;;;13.50;99.90;;;;;;5095767;28;20495;-68
2022/09/26 10:36:18;;;;;;;14.40;13.50;;;13.60;99.90;;;;;;5094595;28;20971;-70
2022/09/26 10:41:45;;;;;;;15.47;14.37;;;13.70;99.90;;;;;;5093507;28;20465;-70
2022/09/26 10:44:28;;;;;;;14.30;13.10;;;13.70;99.90;;;;;;5095925;28;20469;-68
2022/09/26 10:46:59;;;;;;;14.10;13.10;;;13.90;99.90;;;;;;5091992;28;20469;-69
2022/09/26 10:49:35;;;;;;;15.13;14.03;;;14.10;99.90;;;;;;5092073;28;20535;-69
2022/09/26 10:52:08;;;;;;;14.60;13.60;;;14.20;99.90;;;;;;5092632;28;20500;-68
2022/09/26 10:54:41;;;;;;;15.37;14.00;;;14.30;99.90;;;;;;5096500;28;20461;-68
2022/09/26 10:57:18;;;;;;;15.27;14.47;;;14.40;99.90;;;;;;5097182;28;20468;-69
2022/09/26 10:59:46;;;;;;;15.57;14.20;;;14.40;99.90;;;;;;5094788;28;20548;-68
2022/09/26 11:02:20;;;;;;;14.63;13.80;;;14.40;99.90;;;;;;5093660;28;20461;-68
2022/09/26 11:07:37;;;;;;;16.17;15.00;;;14.50;99.90;;;;;;5094147;28;20488;-69
2022/09/26 11:10:09;;;;;;;16.67;15.30;;;14.60;99.90;;;;;;5093791;28;20484;-68
2022/09/26 11:12:38;;;;;;;16.27;15.07;;;14.80;99.90;;;;;;5091702;28;20478;-68
2022/09/26 11:15:08;;;;;;;15.90;15.00;;;14.80;99.90;;;;;;5095085;28;20492;-69
2022/09/26 11:17:44;;;;;;;16.47;15.37;;;14.90;99.90;;;;;;5081500;28;20557;-67
2022/09/26 11:20:17;;;;;;;16.80;15.57;;;15.10;99.90;;;;;;5091382;28;20557;-69
2022/09/26 11:22:52;;;;;;;16.20;15.30;;;15.30;99.90;;;;;;5093858;28;20461;-68
2022/09/26 11:25:24;;;;;;;16.80;15.60;;;15.50;99.90;;;;;;5093102;28;20469;-68
2022/09/26 11:27:55;;;;;;;16.83;15.70;;;15.60;99.90;;;;;;5094698;28;20482;-69
2022/09/26 11:30:23;;;;;;;16.70;15.70;;;15.80;99.90;;;;;;5088612;28;20988;-68
2022/09/26 11:32:54;;;;;;;16.20;15.40;;;16.00;99.90;;;;;;5093896;28;20509;-69
2022/09/26 11:35:32;;;;;;;17.10;16.10;;;16.20;99.90;;;;;;5095366;28;20461;-68
2022/09/26 11:38:10;;;;;;;17.10;16.10;;;16.50;99.90;;;;;;5094383;28;20458;-68
2022/09/26 11:40:59;;;;;;;16.83;15.93;;;16.40;99.90;;;;;;5089339;28;20489;-68
2022/09/26 11:43:37;;;;;;;17.40;16.03;;;16.40;99.90;;;;;;5092827;28;20836;-68
2022/09/26 11:46:30;;;;;;;16.97;15.87;;;16.50;99.90;;;;;;5093110;28;20461;-68
2022/09/26 11:49:26;;;;;;;16.70;15.50;;;16.50;99.90;;;;;;5090818;28;20967;-68
2022/09/26 11:52:08;;;;;;;16.20;15.20;;;16.60;99.90;;;;;;5090505;28;20500;-68
2022/09/26 11:54:57;;;;;;;16.50;15.50;;;16.50;99.90;;;;;;5092026;28;20470;-68
2022/09/26 11:57:37;;;;;;;17.27;15.90;;;16.50;99.90;;;;;;5087864;28;20750;-69
2022/09/26 12:00:23;;;;;;;17.83;14.80;;;16.20;99.90;;;;;;5089346;28;20556;-68
2022/09/26 12:03:29;;;;;;;17.67;16.47;;;16.30;99.90;;;;;;5093202;28;20556;-69
2022/09/26 12:06:01;;;;;;;15.93;15.03;;;16.10;99.90;;;;;;5082311;28;20951;-70
2022/09/26 12:08:41;;;;;;;15.73;14.77;;;16.10;99.90;;;;;;5090351;28;20454;-68
2022/09/26 12:11:18;;;;;;;17.83;16.50;;;15.70;99.90;;;;;;5092718;28;20571;-68
2022/09/26 12:13:52;;;;;;;26.63;24.00;;;15.30;99.90;;;;;;5089912;28;20527;-67
2022/09/26 12:16:26;;;;;;;27.60;25.00;;;14.90;99.90;;;;;;5090729;28;21118;-67
2022/09/26 12:19:01;;;;;;;27.33;24.77;;;14.20;99.90;;;;;;5083601;28;20454;-68
2022/09/26 12:21:40;;;;;;;23.17;21.40;;;13.50;99.90;;;;;;5092919;28;20800;-69
2022/09/26 12:24:13;;;;;;;22.13;20.43;;;13.30;99.90;;;;;;5092402;28;20960;-69
2022/09/26 12:26:50;;;;;;;21.10;19.60;;;13.20;99.90;;;;;;5092803;28;20516;-68
2022/09/26 12:29:36;;;;;;;22.40;20.43;;;13.00;99.90;;;;;;5091163;28;20482;-70
2022/09/26 12:32:31;;;;;;;20.63;19.13;;;13.00;99.90;;;;;;5096706;28;20942;-68
2022/09/26 12:35:31;;;;;;;19.53;17.87;;;13.20;99.90;;;;;;5097514;28;20465;-68
2022/09/26 12:38:39;;;;;;;18.70;17.23;;;13.20;99.90;;;;;;5094862;28;20458;-68
2022/09/26 12:41:38;;;;;;;18.50;17.20;;;13.30;99.90;;;;;;5095740;28;20454;-68
2022/09/26 12:44:30;;;;;;;18.47;17.27;;;13.30;99.90;;;;;;5089586;28;20458;-66
2022/09/26 12:47:22;;;;;;;18.77;17.10;;;13.30;99.90;;;;;;5093719;28;20804;-67
2022/09/26 12:50:07;;;;;;;19.03;17.47;;;13.40;99.90;;;;;;5093276;28;20484;-67
2022/09/26 12:53:00;;;;;;;17.87;16.87;;;13.30;99.90;;;;;;5094126;28;20912;-67
2022/09/26 12:55:37;;;;;;;17.07;16.00;;;13.20;99.90;;;;;;5097161;28;20461;-68
2022/09/26 12:58:23;;;;;;;18.50;17.10;;;13.20;99.90;;;;;;5096542;28;20456;-70
2022/09/26 13:01:01;;;;;;;16.97;15.80;;;13.20;99.90;;;;;;5098215;28;20475;-68
2022/09/26 13:04:04;;;;;;;17.30;16.20;;;13.20;99.90;;;;;;5097876;28;20473;-68
2022/09/26 13:07:02;;;;;;;19.07;17.60;;;13.10;99.90;;;;;;5095122;28;20899;-67